sensor_id;sensor_type;location;lat;lon;timestamp;pressure;altitude;pressure_sealevel;temperature;humidity
12471;BME280;36499;46.484;13.832;2022-08-21T00:02:27;93031.41;;;15.81;77.76
12471;BME280;36499;46.484;13.832;2022-08-21T00:04:55;93027.66;;;15.77;77.77
12471;BME280;36499;46.484;13.832;2022-08-21T00:07:22;93034.03;;;15.81;77.98
12471;BME280;36499;46.484;13.832;2022-08-21T00:09:51;93043.97;;;15.79;77.84
12471;BME280;36499;46.484;13.832;2022-08-21T00:12:19;93035.66;;;15.87;77.81
12471;BME280;36499;46.484;13.832;2022-08-21T00:14:47;93034.63;;;15.88;77.77
12471;BME280;36499;46.484;13.832;2022-08-21T00:17:14;93032.00;;;15.88;78.07
12471;BME280;36499;46.484;13.832;2022-08-21T00:19:41;93029.13;;;15.90;77.60
12471;BME280;36499;46.484;13.832;2022-08-21T00:22:08;93031.28;;;15.93;77.66
12471;BME280;36499;46.484;13.832;2022-08-21T00:24:35;93033.63;;;15.94;77.49
12471;BME280;36499;46.484;13.832;2022-08-21T00:27:04;93024.31;;;15.81;78.34
12471;BME280;36499;46.484;13.832;2022-08-21T00:29:31;93024.50;;;15.75;78.89
12471;BME280;36499;46.484;13.832;2022-08-21T00:31:58;93026.03;;;15.71;79.08
12471;BME280;36499;46.484;13.832;2022-08-21T00:34:25;93024.97;;;15.72;78.84
12471;BME280;36499;46.484;13.832;2022-08-21T00:36:53;93022.59;;;15.70;78.44
12471;BME280;36499;46.484;13.832;2022-08-21T00:39:20;93026.56;;;15.73;78.71
12471;BME280;36499;46.484;13.832;2022-08-21T00:41:47;93022.91;;;15.74;78.94
12471;BME280;36499;46.484;13.832;2022-08-21T00:44:16;93019.97;;;15.70;78.69
12471;BME280;36499;46.484;13.832;2022-08-21T00:46:44;93024.97;;;15.72;78.32
12471;BME280;36499;46.484;13.832;2022-08-21T00:49:12;93019.72;;;15.72;78.50
12471;BME280;36499;46.484;13.832;2022-08-21T00:51:48;93014.03;;;15.80;78.15
12471;BME280;36499;46.484;13.832;2022-08-21T00:54:17;93012.41;;;15.74;78.51
12471;BME280;36499;46.484;13.832;2022-08-21T00:56:48;93020.00;;;15.75;78.58
12471;BME280;36499;46.484;13.832;2022-08-21T00:59:20;93023.50;;;15.81;78.23
12471;BME280;36499;46.484;13.832;2022-08-21T01:01:49;93021.91;;;15.80;78.64
12471;BME280;36499;46.484;13.832;2022-08-21T01:04:18;93020.94;;;15.64;78.76
12471;BME280;36499;46.484;13.832;2022-08-21T01:06:46;93023.63;;;15.69;78.85
12471;BME280;36499;46.484;13.832;2022-08-21T01:09:14;93020.47;;;15.67;79.15
12471;BME280;36499;46.484;13.832;2022-08-21T01:11:42;93011.03;;;15.71;79.20
12471;BME280;36499;46.484;13.832;2022-08-21T01:14:10;93004.69;;;15.67;78.92
12471;BME280;36499;46.484;13.832;2022-08-21T01:16:40;93008.91;;;15.68;78.75
12471;BME280;36499;46.484;13.832;2022-08-21T01:19:10;93004.75;;;15.72;79.19
12471;BME280;36499;46.484;13.832;2022-08-21T01:21:39;92999.25;;;15.74;78.66
12471;BME280;36499;46.484;13.832;2022-08-21T01:24:06;92997.16;;;15.76;78.54
12471;BME280;36499;46.484;13.832;2022-08-21T01:26:35;93006.84;;;15.70;78.83
12471;BME280;36499;46.484;13.832;2022-08-21T01:29:09;93009.50;;;15.75;78.75
12471;BME280;36499;46.484;13.832;2022-08-21T01:31:39;93012.09;;;15.70;79.20
12471;BME280;36499;46.484;13.832;2022-08-21T01:34:08;93004.94;;;15.66;79.56
12471;BME280;36499;46.484;13.832;2022-08-21T01:36:35;93008.00;;;15.58;79.77
12471;BME280;36499;46.484;13.832;2022-08-21T01:39:05;93007.34;;;15.67;79.39
12471;BME280;36499;46.484;13.832;2022-08-21T01:41:32;93001.88;;;15.74;78.90
12471;BME280;36499;46.484;13.832;2022-08-21T01:43:59;92998.97;;;15.75;79.02
12471;BME280;36499;46.484;13.832;2022-08-21T01:46:26;92999.28;;;15.79;79.08
12471;BME280;36499;46.484;13.832;2022-08-21T01:48:54;92991.91;;;15.76;78.88
12471;BME280;36499;46.484;13.832;2022-08-21T01:51:21;92993.00;;;15.80;78.66
12471;BME280;36499;46.484;13.832;2022-08-21T01:53:49;92994.22;;;15.72;79.16
12471;BME280;36499;46.484;13.832;2022-08-21T01:56:18;92991.84;;;15.71;79.01
12471;BME280;36499;46.484;13.832;2022-08-21T01:58:47;92980.28;;;15.72;79.07
12471;BME280;36499;46.484;13.832;2022-08-21T02:01:15;92981.59;;;15.69;79.59
12471;BME280;36499;46.484;13.832;2022-08-21T02:03:42;92984.09;;;15.59;79.57
12471;BME280;36499;46.484;13.832;2022-08-21T02:06:14;92982.50;;;15.58;80.38
12471;BME280;36499;46.484;13.832;2022-08-21T02:08:44;92978.72;;;15.49;80.48
12471;BME280;36499;46.484;13.832;2022-08-21T02:11:11;92986.44;;;15.56;80.52
12471;BME280;36499;46.484;13.832;2022-08-21T02:13:40;92971.69;;;15.55;80.24
12471;BME280;36499;46.484;13.832;2022-08-21T02:16:09;92972.91;;;15.69;79.26
12471;BME280;36499;46.484;13.832;2022-08-21T02:18:37;92968.25;;;15.76;78.32
12471;BME280;36499;46.484;13.832;2022-08-21T02:21:05;92958.78;;;15.75;78.60
12471;BME280;36499;46.484;13.832;2022-08-21T02:23:33;92966.84;;;15.68;78.89
12471;BME280;36499;46.484;13.832;2022-08-21T02:26:03;92961.84;;;15.67;79.43
12471;BME280;36499;46.484;13.832;2022-08-21T02:28:32;92966.03;;;15.68;79.17
12471;BME280;36499;46.484;13.832;2022-08-21T02:31:02;92961.25;;;15.60;79.67
12471;BME280;36499;46.484;13.832;2022-08-21T02:33:30;92967.78;;;15.57;79.77
12471;BME280;36499;46.484;13.832;2022-08-21T02:35:58;92966.50;;;15.60;79.56
12471;BME280;36499;46.484;13.832;2022-08-21T02:38:29;92966.50;;;15.60;79.67
12471;BME280;36499;46.484;13.832;2022-08-21T02:40:59;92964.03;;;15.53;79.99
12471;BME280;36499;46.484;13.832;2022-08-21T02:43:27;92967.47;;;15.54;79.98
12471;BME280;36499;46.484;13.832;2022-08-21T02:45:57;92966.03;;;15.46;80.55
12471;BME280;36499;46.484;13.832;2022-08-21T02:48:28;92961.69;;;15.52;80.43
12471;BME280;36499;46.484;13.832;2022-08-21T02:50:58;92959.44;;;15.44;80.81
12471;BME280;36499;46.484;13.832;2022-08-21T02:53:27;92961.94;;;15.33;81.05
12471;BME280;36499;46.484;13.832;2022-08-21T02:55:59;92954.69;;;15.41;80.88
12471;BME280;36499;46.484;13.832;2022-08-21T02:58:32;92961.03;;;15.23;81.47
12471;BME280;36499;46.484;13.832;2022-08-21T03:00:59;92958.09;;;15.19;81.72
12471;BME280;36499;46.484;13.832;2022-08-21T03:03:28;92954.44;;;15.20;81.63
12471;BME280;36499;46.484;13.832;2022-08-21T03:05:56;92955.84;;;15.28;81.26
12471;BME280;36499;46.484;13.832;2022-08-21T03:08:23;92948.16;;;15.21;81.56
12471;BME280;36499;46.484;13.832;2022-08-21T03:10:52;92949.47;;;15.24;81.74
12471;BME280;36499;46.484;13.832;2022-08-21T03:13:20;92950.13;;;15.14;82.06
12471;BME280;36499;46.484;13.832;2022-08-21T03:15:48;92947.47;;;15.09;82.23
12471;BME280;36499;46.484;13.832;2022-08-21T03:18:16;92949.91;;;15.16;81.73
12471;BME280;36499;46.484;13.832;2022-08-21T03:20:46;92948.78;;;15.12;82.12
12471;BME280;36499;46.484;13.832;2022-08-21T03:23:15;92950.72;;;15.00;82.77
12471;BME280;36499;46.484;13.832;2022-08-21T03:25:44;92957.59;;;15.01;82.80
12471;BME280;36499;46.484;13.832;2022-08-21T03:28:16;92948.84;;;14.95;83.15
12471;BME280;36499;46.484;13.832;2022-08-21T03:30:46;92953.41;;;14.83;83.55
12471;BME280;36499;46.484;13.832;2022-08-21T03:33:15;92954.81;;;14.91;83.13
12471;BME280;36499;46.484;13.832;2022-08-21T03:35:47;92953.94;;;14.85;82.82
12471;BME280;36499;46.484;13.832;2022-08-21T03:38:14;92948.47;;;14.86;82.97
12471;BME280;36499;46.484;13.832;2022-08-21T03:40:42;92951.09;;;14.86;82.88
12471;BME280;36499;46.484;13.832;2022-08-21T03:43:10;92961.81;;;14.85;82.88
12471;BME280;36499;46.484;13.832;2022-08-21T03:45:37;92958.72;;;14.88;82.77
12471;BME280;36499;46.484;13.832;2022-08-21T03:48:07;92952.56;;;14.99;81.69
12471;BME280;36499;46.484;13.832;2022-08-21T03:50:40;92945.03;;;15.03;81.23
12471;BME280;36499;46.484;13.832;2022-08-21T03:53:12;92953.84;;;14.97;81.32
12471;BME280;36499;46.484;13.832;2022-08-21T03:55:39;92958.50;;;15.11;80.70
12471;BME280;36499;46.484;13.832;2022-08-21T03:58:07;92958.88;;;15.20;80.14
12471;BME280;36499;46.484;13.832;2022-08-21T04:00:35;92958.56;;;15.16;80.05
12471;BME280;36499;46.484;13.832;2022-08-21T04:03:03;92960.72;;;15.19;79.84
12471;BME280;36499;46.484;13.832;2022-08-21T04:05:30;92953.31;;;15.16;79.65
12471;BME280;36499;46.484;13.832;2022-08-21T04:08:03;92953.88;;;15.18;80.06
12471;BME280;36499;46.484;13.832;2022-08-21T04:10:34;92960.19;;;15.17;79.56
12471;BME280;36499;46.484;13.832;2022-08-21T04:13:03;92956.97;;;15.15;79.24
12471;BME280;36499;46.484;13.832;2022-08-21T04:15:31;92956.56;;;15.23;79.26
12471;BME280;36499;46.484;13.832;2022-08-21T04:17:58;92959.00;;;15.30;79.46
12471;BME280;36499;46.484;13.832;2022-08-21T04:20:26;92957.19;;;15.30;79.45
12471;BME280;36499;46.484;13.832;2022-08-21T04:22:53;92956.78;;;15.22;79.51
12471;BME280;36499;46.484;13.832;2022-08-21T04:25:23;92956.78;;;15.22;80.01
12471;BME280;36499;46.484;13.832;2022-08-21T04:27:52;92957.16;;;15.09;80.16
12471;BME280;36499;46.484;13.832;2022-08-21T04:30:20;92959.72;;;15.04;80.79
12471;BME280;36499;46.484;13.832;2022-08-21T04:32:50;92957.16;;;15.09;80.79
12471;BME280;36499;46.484;13.832;2022-08-21T04:35:20;92959.09;;;14.97;81.46
12471;BME280;36499;46.484;13.832;2022-08-21T04:37:48;92951.44;;;15.12;80.58
12471;BME280;36499;46.484;13.832;2022-08-21T04:40:18;92956.78;;;15.22;80.24
12471;BME280;36499;46.484;13.832;2022-08-21T04:42:50;92964.63;;;15.17;79.78
12471;BME280;36499;46.484;13.832;2022-08-21T04:45:23;92965.25;;;15.24;79.98
12471;BME280;36499;46.484;13.832;2022-08-21T04:47:52;92962.19;;;15.32;79.85
12471;BME280;36499;46.484;13.832;2022-08-21T04:50:23;92966.97;;;15.35;79.52
12471;BME280;36499;46.484;13.832;2022-08-21T04:52:51;92968.56;;;15.36;79.57
12471;BME280;36499;46.484;13.832;2022-08-21T04:55:21;92978.75;;;15.32;80.17
12471;BME280;36499;46.484;13.832;2022-08-21T04:57:50;92983.44;;;15.30;80.53
12471;BME280;36499;46.484;13.832;2022-08-21T05:00:22;92985.34;;;15.35;80.96
12471;BME280;36499;46.484;13.832;2022-08-21T05:02:51;92984.72;;;15.28;81.30
12471;BME280;36499;46.484;13.832;2022-08-21T05:05:22;92989.13;;;15.22;82.40
12471;BME280;36499;46.484;13.832;2022-08-21T05:07:49;92991.81;;;15.27;82.49
12471;BME280;36499;46.484;13.832;2022-08-21T05:10:18;92997.00;;;15.22;83.37
12471;BME280;36499;46.484;13.832;2022-08-21T05:12:45;93005.97;;;15.26;83.93
12471;BME280;36499;46.484;13.832;2022-08-21T05:15:12;93001.22;;;15.23;84.43
12471;BME280;36499;46.484;13.832;2022-08-21T05:17:41;93002.13;;;15.12;85.42
12471;BME280;36499;46.484;13.832;2022-08-21T05:20:10;93016.13;;;15.18;85.99
12471;BME280;36499;46.484;13.832;2022-08-21T05:22:38;92998.88;;;15.05;86.96
12471;BME280;36499;46.484;13.832;2022-08-21T05:25:08;93003.44;;;15.15;87.79
12471;BME280;36499;46.484;13.832;2022-08-21T05:27:35;93001.44;;;15.22;87.89
12471;BME280;36499;46.484;13.832;2022-08-21T05:30:04;92997.56;;;15.24;87.16
12471;BME280;36499;46.484;13.832;2022-08-21T05:32:33;92999.28;;;15.35;87.28
12471;BME280;36499;46.484;13.832;2022-08-21T05:35:02;93006.75;;;15.44;87.25
12471;BME280;36499;46.484;13.832;2022-08-21T05:37:30;93006.25;;;15.47;87.35
12471;BME280;36499;46.484;13.832;2022-08-21T05:39:58;93008.22;;;15.56;86.67
12471;BME280;36499;46.484;13.832;2022-08-21T05:42:26;93013.84;;;15.65;87.44
12471;BME280;36499;46.484;13.832;2022-08-21T05:44:53;93009.50;;;15.75;86.94
12471;BME280;36499;46.484;13.832;2022-08-21T05:47:20;93008.22;;;15.78;87.65
12471;BME280;36499;46.484;13.832;2022-08-21T05:49:47;93008.84;;;15.85;87.56
12471;BME280;36499;46.484;13.832;2022-08-21T05:52:21;93011.84;;;15.94;87.82
12471;BME280;36499;46.484;13.832;2022-08-21T05:54:49;93009.00;;;16.00;87.45
12471;BME280;36499;46.484;13.832;2022-08-21T05:57:19;93004.09;;;16.09;87.68
12471;BME280;36499;46.484;13.832;2022-08-21T05:59:47;93004.13;;;16.14;89.25
12471;BME280;36499;46.484;13.832;2022-08-21T06:02:16;93002.88;;;16.21;87.97
12471;BME280;36499;46.484;13.832;2022-08-21T06:04:43;93002.59;;;16.18;87.94
12471;BME280;36499;46.484;13.832;2022-08-21T06:07:10;93005.06;;;16.24;88.13
12471;BME280;36499;46.484;13.832;2022-08-21T06:09:39;93000.31;;;16.26;87.86
12471;BME280;36499;46.484;13.832;2022-08-21T06:12:10;92994.56;;;16.29;87.32
12471;BME280;36499;46.484;13.832;2022-08-21T06:14:40;92990.03;;;16.25;87.88
12471;BME280;36499;46.484;13.832;2022-08-21T06:17:10;93003.34;;;16.13;87.24
12471;BME280;36499;46.484;13.832;2022-08-21T06:19:38;92996.88;;;16.26;86.99
12471;BME280;36499;46.484;13.832;2022-08-21T06:22:05;92999.13;;;16.39;87.71
12471;BME280;36499;46.484;13.832;2022-08-21T06:24:32;92990.78;;;16.47;87.70
12471;BME280;36499;46.484;13.832;2022-08-21T06:27:08;92990.50;;;16.49;87.83
12471;BME280;36499;46.484;13.832;2022-08-21T06:29:36;92997.19;;;16.56;87.90
12471;BME280;36499;46.484;13.832;2022-08-21T06:32:05;92993.56;;;16.62;87.57
12471;BME280;36499;46.484;13.832;2022-08-21T06:34:37;92994.44;;;16.78;86.86
12471;BME280;36499;46.484;13.832;2022-08-21T06:37:04;92996.16;;;16.94;87.15
12471;BME280;36499;46.484;13.832;2022-08-21T06:39:33;92988.63;;;17.08;86.39
12471;BME280;36499;46.484;13.832;2022-08-21T06:42:01;92986.34;;;17.26;86.73
12471;BME280;36499;46.484;13.832;2022-08-21T06:44:30;92997.09;;;17.20;86.07
12471;BME280;36499;46.484;13.832;2022-08-21T06:46:57;92994.25;;;17.26;86.24
12471;BME280;36499;46.484;13.832;2022-08-21T06:49:24;92988.94;;;17.21;86.67
12471;BME280;36499;46.484;13.832;2022-08-21T06:51:51;92990.03;;;17.25;86.68
12471;BME280;36499;46.484;13.832;2022-08-21T06:54:18;92985.56;;;17.31;86.63
12471;BME280;36499;46.484;13.832;2022-08-21T06:56:46;92980.34;;;17.36;86.46
12471;BME280;36499;46.484;13.832;2022-08-21T06:59:13;92980.28;;;17.31;85.65
12471;BME280;36499;46.484;13.832;2022-08-21T07:01:41;92975.91;;;17.47;85.50
12471;BME280;36499;46.484;13.832;2022-08-21T07:04:08;92977.78;;;17.56;84.93
12471;BME280;36499;46.484;13.832;2022-08-21T07:06:36;92982.28;;;17.56;84.59
12471;BME280;36499;46.484;13.832;2022-08-21T07:09:03;92979.94;;;17.59;84.11
12471;BME280;36499;46.484;13.832;2022-08-21T07:11:30;92981.81;;;17.64;83.78
12471;BME280;36499;46.484;13.832;2022-08-21T07:13:58;92980.69;;;17.55;83.77
12471;BME280;36499;46.484;13.832;2022-08-21T07:16:25;92975.47;;;17.60;84.25
12471;BME280;36499;46.484;13.832;2022-08-21T07:18:53;92976.25;;;17.65;83.48
12471;BME280;36499;46.484;13.832;2022-08-21T07:21:21;92978.97;;;17.76;83.59
12471;BME280;36499;46.484;13.832;2022-08-21T07:23:50;92978.72;;;17.82;84.19
12471;BME280;36499;46.484;13.832;2022-08-21T07:26:21;92979.53;;;17.88;83.96
12471;BME280;36499;46.484;13.832;2022-08-21T07:28:50;92973.50;;;18.02;82.21
12471;BME280;36499;46.484;13.832;2022-08-21T07:31:20;92977.22;;;18.27;81.68
12471;BME280;36499;46.484;13.832;2022-08-21T07:33:49;92974.59;;;18.42;80.67
12471;BME280;36499;46.484;13.832;2022-08-21T07:36:17;92978.09;;;18.67;79.15
12471;BME280;36499;46.484;13.832;2022-08-21T07:38:44;92960.91;;;18.90;77.68
12471;BME280;36499;46.484;13.832;2022-08-21T07:41:19;92963.25;;;19.12;76.54
12471;BME280;36499;46.484;13.832;2022-08-21T07:43:46;92964.75;;;19.53;76.40
12471;BME280;36499;46.484;13.832;2022-08-21T07:46:14;92957.47;;;19.89;73.26
12471;BME280;36499;46.484;13.832;2022-08-21T07:48:41;92953.09;;;20.13;67.83
12471;BME280;36499;46.484;13.832;2022-08-21T07:51:17;92953.16;;;20.47;66.97
12471;BME280;36499;46.484;13.832;2022-08-21T07:53:48;92947.47;;;20.64;65.08
12471;BME280;36499;46.484;13.832;2022-08-21T07:56:15;92946.34;;;20.70;65.05
12471;BME280;36499;46.484;13.832;2022-08-21T07:58:43;92943.44;;;21.00;64.21
12471;BME280;36499;46.484;13.832;2022-08-21T08:01:11;92935.31;;;21.21;64.17
12471;BME280;36499;46.484;13.832;2022-08-21T08:03:38;92935.78;;;21.51;63.79
12471;BME280;36499;46.484;13.832;2022-08-21T08:06:06;92934.41;;;21.78;63.19
12471;BME280;36499;46.484;13.832;2022-08-21T08:08:38;92933.38;;;21.97;64.16
12471;BME280;36499;46.484;13.832;2022-08-21T08:11:07;92933.53;;;22.06;62.41
12471;BME280;36499;46.484;13.832;2022-08-21T08:13:39;92928.81;;;22.22;62.39
12471;BME280;36499;46.484;13.832;2022-08-21T08:16:07;92927.06;;;22.31;60.67
12471;BME280;36499;46.484;13.832;2022-08-21T08:18:34;92925.00;;;22.28;59.95
12471;BME280;36499;46.484;13.832;2022-08-21T08:21:01;92929.44;;;22.51;52.61
12471;BME280;36499;46.484;13.832;2022-08-21T08:23:28;92927.19;;;22.58;50.71
12471;BME280;36499;46.484;13.832;2022-08-21T08:25:58;92925.69;;;22.71;49.92
12471;BME280;36499;46.484;13.832;2022-08-21T08:28:25;92925.56;;;22.94;48.92
12471;BME280;36499;46.484;13.832;2022-08-21T08:30:52;92924.53;;;23.23;47.78
12471;BME280;36499;46.484;13.832;2022-08-21T08:33:20;92920.50;;;23.25;47.57
12471;BME280;36499;46.484;13.832;2022-08-21T08:35:51;92922.31;;;23.71;46.68
12471;BME280;36499;46.484;13.832;2022-08-21T08:38:21;92931.09;;;23.85;47.44
12471;BME280;36499;46.484;13.832;2022-08-21T08:40:58;92921.25;;;23.58;45.47
12471;BME280;36499;46.484;13.832;2022-08-21T08:43:28;92921.72;;;23.47;44.97
12471;BME280;36499;46.484;13.832;2022-08-21T08:46:00;92923.09;;;23.71;46.93
12471;BME280;36499;46.484;13.832;2022-08-21T08:48:43;92915.69;;;23.96;46.77
12471;BME280;36499;46.484;13.832;2022-08-21T08:51:19;92919.94;;;23.97;45.35
12471;BME280;36499;46.484;13.832;2022-08-21T08:53:54;92920.25;;;23.81;44.52
12471;BME280;36499;46.484;13.832;2022-08-21T08:56:30;92918.94;;;23.93;42.75
12471;BME280;36499;46.484;13.832;2022-08-21T08:59:07;92924.47;;;23.82;44.77
12471;BME280;36499;46.484;13.832;2022-08-21T09:01:35;92922.09;;;23.95;42.21
12471;BME280;36499;46.484;13.832;2022-08-21T09:04:03;92924.44;;;24.10;42.16
12471;BME280;36499;46.484;13.832;2022-08-21T09:07:10;92933.44;;;24.14;42.71
12471;BME280;36499;46.484;13.832;2022-08-21T09:09:58;92925.81;;;23.94;43.02
12471;BME280;36499;46.484;13.832;2022-08-21T09:12:43;92936.97;;;23.82;41.55
12471;BME280;36499;46.484;13.832;2022-08-21T09:15:22;92930.53;;;24.24;43.30
12471;BME280;36499;46.484;13.832;2022-08-21T09:18:09;92929.47;;;24.47;44.79
12471;BME280;36499;46.484;13.832;2022-08-21T09:20:48;92924.66;;;24.71;40.09
12471;BME280;36499;46.484;13.832;2022-08-21T09:23:33;92919.44;;;24.66;40.72
12471;BME280;36499;46.484;13.832;2022-08-21T09:26:12;92913.22;;;24.93;39.98
12471;BME280;36499;46.484;13.832;2022-08-21T09:28:42;92917.63;;;24.75;39.98
12471;BME280;36499;46.484;13.832;2022-08-21T09:31:22;92911.66;;;24.34;40.03
12471;BME280;36499;46.484;13.832;2022-08-21T09:33:49;92918.00;;;24.60;39.74
12471;BME280;36499;46.484;13.832;2022-08-21T09:36:33;92910.19;;;24.86;39.84
12471;BME280;36499;46.484;13.832;2022-08-21T09:39:00;92911.84;;;24.96;38.99
12471;BME280;36499;46.484;13.832;2022-08-21T09:41:32;92907.81;;;25.46;40.07
12471;BME280;36499;46.484;13.832;2022-08-21T09:44:03;92902.84;;;25.53;40.83
12471;BME280;36499;46.484;13.832;2022-08-21T09:46:30;92907.59;;;25.34;38.84
12471;BME280;36499;46.484;13.832;2022-08-21T09:49:00;92903.59;;;25.45;38.59
12471;BME280;36499;46.484;13.832;2022-08-21T09:51:32;92900.22;;;25.31;39.65
12471;BME280;36499;46.484;13.832;2022-08-21T09:54:16;92903.91;;;25.44;38.70
12471;BME280;36499;46.484;13.832;2022-08-21T09:56:56;92901.66;;;25.76;41.49
12471;BME280;36499;46.484;13.832;2022-08-21T09:59:44;92900.25;;;25.70;39.04
12471;BME280;36499;46.484;13.832;2022-08-21T10:02:26;92893.81;;;25.71;37.26
12471;BME280;36499;46.484;13.832;2022-08-21T10:04:57;92902.75;;;25.36;37.75
12471;BME280;36499;46.484;13.832;2022-08-21T10:07:28;92888.03;;;25.47;37.51
12471;BME280;36499;46.484;13.832;2022-08-21T10:10:02;92893.34;;;25.78;39.46
12471;BME280;36499;46.484;13.832;2022-08-21T10:12:41;92895.72;;;25.88;37.85
12471;BME280;36499;46.484;13.832;2022-08-21T10:15:31;92890.97;;;25.76;39.15
12471;BME280;36499;46.484;13.832;2022-08-21T10:18:14;92900.47;;;26.00;38.65
12471;BME280;36499;46.484;13.832;2022-08-21T10:20:54;92899.00;;;25.68;36.93
12471;BME280;36499;46.484;13.832;2022-08-21T10:23:54;92896.75;;;25.61;36.56
12471;BME280;36499;46.484;13.832;2022-08-21T10:26:50;92894.34;;;25.51;36.12
12471;BME280;36499;46.484;13.832;2022-08-21T10:29:46;92893.94;;;25.66;36.13
12471;BME280;36499;46.484;13.832;2022-08-21T10:32:54;92897.31;;;26.06;38.73
12471;BME280;36499;46.484;13.832;2022-08-21T10:35:27;92899.06;;;26.11;38.33
12471;BME280;36499;46.484;13.832;2022-08-21T10:38:41;92898.59;;;26.09;36.00
12471;BME280;36499;46.484;13.832;2022-08-21T10:41:20;92886.69;;;26.23;36.67
12471;BME280;36499;46.484;13.832;2022-08-21T10:44:01;92885.59;;;26.24;35.08
12471;BME280;36499;46.484;13.832;2022-08-21T10:46:49;92889.19;;;26.71;37.41
12471;BME280;36499;46.484;13.832;2022-08-21T10:49:29;92877.88;;;26.57;36.96
12471;BME280;36499;46.484;13.832;2022-08-21T10:52:32;92885.06;;;25.97;35.90
12471;BME280;36499;46.484;13.832;2022-08-21T10:55:09;92891.38;;;26.01;36.94
12471;BME280;36499;46.484;13.832;2022-08-21T10:57:44;92884.81;;;26.50;39.09
12471;BME280;36499;46.484;13.832;2022-08-21T11:00:19;92875.50;;;26.82;35.33
12471;BME280;36499;46.484;13.832;2022-08-21T11:02:55;92878.78;;;27.04;36.46
12471;BME280;36499;46.484;13.832;2022-08-21T11:05:31;92880.97;;;27.11;34.98
12471;BME280;36499;46.484;13.832;2022-08-21T11:08:06;92878.50;;;26.89;33.35
12471;BME280;36499;46.484;13.832;2022-08-21T11:10:39;92880.41;;;26.45;34.03
12471;BME280;36499;46.484;13.832;2022-08-21T11:13:15;92876.47;;;26.25;36.06
12471;BME280;36499;46.484;13.832;2022-08-21T11:15:54;92873.63;;;26.56;39.25
12471;BME280;36499;46.484;13.832;2022-08-21T11:18:28;92867.78;;;26.71;37.16
12471;BME280;36499;46.484;13.832;2022-08-21T11:21:19;92877.13;;;26.31;36.42
12471;BME280;36499;46.484;13.832;2022-08-21T11:23:54;92877.03;;;25.88;36.17
12471;BME280;36499;46.484;13.832;2022-08-21T11:26:34;92881.06;;;25.68;35.99
12471;BME280;36499;46.484;13.832;2022-08-21T11:29:13;92875.66;;;26.08;39.53
12471;BME280;36499;46.484;13.832;2022-08-21T11:32:09;92875.34;;;26.87;37.94
12471;BME280;36499;46.484;13.832;2022-08-21T11:34:54;92868.81;;;27.22;37.45
12471;BME280;36499;46.484;13.832;2022-08-21T11:37:50;92871.59;;;27.43;39.58
12471;BME280;36499;46.484;13.832;2022-08-21T11:40:37;92857.53;;;26.99;36.90
12471;BME280;36499;46.484;13.832;2022-08-21T11:43:19;92869.03;;;26.83;35.80
12471;BME280;36499;46.484;13.832;2022-08-21T11:45:52;92875.97;;;26.92;35.63
12471;BME280;36499;46.484;13.832;2022-08-21T11:48:37;92873.94;;;26.63;38.34
12471;BME280;36499;46.484;13.832;2022-08-21T11:51:13;92885.72;;;26.02;36.62
12471;BME280;36499;46.484;13.832;2022-08-21T11:54:00;92888.91;;;25.65;36.27
12471;BME280;36499;46.484;13.832;2022-08-21T11:56:35;92886.94;;;25.09;37.80
12471;BME280;36499;46.484;13.832;2022-08-21T11:59:11;92889.19;;;24.93;38.22
12471;BME280;36499;46.484;13.832;2022-08-21T12:01:47;92891.81;;;24.84;39.83
12471;BME280;36499;46.484;13.832;2022-08-21T12:04:28;92886.88;;;25.00;39.15
12471;BME280;36499;46.484;13.832;2022-08-21T12:07:08;92890.13;;;25.19;39.40
12471;BME280;36499;46.484;13.832;2022-08-21T12:09:38;92881.91;;;25.47;40.61
12471;BME280;36499;46.484;13.832;2022-08-21T12:12:21;92864.16;;;25.99;38.78
12471;BME280;36499;46.484;13.832;2022-08-21T12:15:03;92876.47;;;26.43;36.80
12471;BME280;36499;46.484;13.832;2022-08-21T12:17:37;92869.22;;;26.69;37.12
12471;BME280;36499;46.484;13.832;2022-08-21T12:20:22;92873.63;;;26.82;37.89
12471;BME280;36499;46.484;13.832;2022-08-21T12:23:02;92877.06;;;27.00;37.04
12471;BME280;36499;46.484;13.832;2022-08-21T12:25:38;92877.44;;;26.55;34.79
12471;BME280;36499;46.484;13.832;2022-08-21T12:28:10;92886.06;;;26.52;35.70
12471;BME280;36499;46.484;13.832;2022-08-21T12:30:42;92890.16;;;26.41;36.69
12471;BME280;36499;46.484;13.832;2022-08-21T12:33:24;92885.75;;;26.28;35.59
12471;BME280;36499;46.484;13.832;2022-08-21T12:36:03;92876.78;;;26.41;34.59
12471;BME280;36499;46.484;13.832;2022-08-21T12:38:43;92872.00;;;27.07;38.05
12471;BME280;36499;46.484;13.832;2022-08-21T12:41:20;92864.16;;;27.48;33.03
12471;BME280;36499;46.484;13.832;2022-08-21T12:43:57;92859.81;;;27.73;35.06
12471;BME280;36499;46.484;13.832;2022-08-21T12:46:34;92864.66;;;27.80;33.42
12471;BME280;36499;46.484;13.832;2022-08-21T12:49:13;92854.63;;;27.22;31.87
12471;BME280;36499;46.484;13.832;2022-08-21T12:51:52;92857.50;;;27.16;31.28
12471;BME280;36499;46.484;13.832;2022-08-21T12:54:27;92849.50;;;26.99;32.28
12471;BME280;36499;46.484;13.832;2022-08-21T12:57:02;92856.34;;;26.54;32.12
12471;BME280;36499;46.484;13.832;2022-08-21T12:59:31;92847.66;;;26.14;33.06
12471;BME280;36499;46.484;13.832;2022-08-21T13:02:03;92836.38;;;26.34;32.28
12471;BME280;36499;46.484;13.832;2022-08-21T13:04:38;92843.59;;;26.16;33.66
12471;BME280;36499;46.484;13.832;2022-08-21T13:07:09;92840.78;;;26.21;36.22
12471;BME280;36499;46.484;13.832;2022-08-21T13:09:46;92839.47;;;26.88;35.06
12471;BME280;36499;46.484;13.832;2022-08-21T13:12:17;92833.91;;;27.48;34.43
12471;BME280;36499;46.484;13.832;2022-08-21T13:14:48;92830.47;;;27.77;32.41
12471;BME280;36499;46.484;13.832;2022-08-21T13:17:20;92833.41;;;27.84;30.45